Time;durP1;ratioP1;P1;durP2;ratioP2;P2;SDS_P1;SDS_P2;PMS_P1;PMS_P2;Temp;Humidity;BMP_temperature;BMP_pressure;BME280_temperature;BME280_humidity;BME280_pressure;Samples;Min_cycle;Max_cycle;Signal;HPM_P1;HPM_P2
2021/07/20 00:01:15;;;;;;;21.53;17.83;;;18.10;99.90;;;;;;6253848;22;20467;-90
2021/07/20 00:03:42;;;;;;;23.50;18.43;;;18.20;99.90;;;;;;6234094;22;20412;-91
2021/07/20 00:06:08;;;;;;;20.37;18.17;;;18.10;99.90;;;;;;6233419;22;20404;-91
2021/07/20 00:08:33;;;;;;;20.23;17.20;;;18.10;99.90;;;;;;6235519;22;20393;-92
2021/07/20 00:11:02;;;;;;;19.63;17.53;;;18.10;99.90;;;;;;6235222;22;20397;-90
2021/07/20 00:13:28;;;;;;;21.10;17.33;;;18.10;99.90;;;;;;6236028;22;20163;-90
2021/07/20 00:15:57;;;;;;;19.27;17.27;;;18.10;99.90;;;;;;6235491;22;20952;-91
2021/07/20 00:18:26;;;;;;;23.47;18.70;;;18.20;99.90;;;;;;6234516;22;20432;-90
2021/07/20 00:20:53;;;;;;;21.73;18.80;;;18.10;99.90;;;;;;6235380;22;20706;-91
2021/07/20 00:23:20;;;;;;;20.27;17.90;;;18.20;99.90;;;;;;6238141;22;20428;-89
2021/07/20 00:25:48;;;;;;;22.40;18.03;;;18.20;99.90;;;;;;6238183;22;20405;-89
2021/07/20 00:28:15;;;;;;;20.60;17.63;;;18.30;99.90;;;;;;6236775;22;20784;-92
2021/07/20 00:30:51;;;;;;;20.40;17.53;;;18.20;99.90;;;;;;6237623;22;20393;-93
2021/07/20 00:33:17;;;;;;;22.07;18.80;;;18.10;99.90;;;;;;6238125;22;20482;-91
2021/07/20 00:35:44;;;;;;;22.00;18.27;;;18.00;99.90;;;;;;6237121;22;20397;-92
2021/07/20 00:38:15;;;;;;;22.27;19.10;;;17.90;99.90;;;;;;6263001;22;20712;-92
2021/07/20 00:40:49;;;;;;;21.13;16.30;;;17.90;99.90;;;;;;6237986;22;20396;-91
2021/07/20 00:43:15;;;;;;;22.87;19.53;;;17.90;99.90;;;;;;6239551;22;20765;-95
2021/07/20 00:45:48;;;;;;;20.33;17.90;;;17.70;99.90;;;;;;6238582;22;20389;-92
2021/07/20 00:48:14;;;;;;;23.07;18.80;;;17.60;99.90;;;;;;6238994;22;20455;-93
2021/07/20 00:50:47;;;;;;;21.60;19.10;;;17.60;99.90;;;;;;6237359;22;20381;-93
2021/07/20 00:53:14;;;;;;;21.23;16.80;;;17.60;99.90;;;;;;6236205;22;20884;-91
2021/07/20 00:55:42;;;;;;;19.27;17.13;;;17.50;99.90;;;;;;6237904;22;20917;-91
2021/07/20 00:58:11;;;;;;;19.93;17.70;;;17.50;99.90;;;;;;6235958;22;20412;-91
2021/07/20 01:00:37;;;;;;;21.30;16.87;;;17.40;99.90;;;;;;6237426;22;20768;-92
2021/07/20 01:03:05;;;;;;;19.80;17.07;;;17.50;99.90;;;;;;6261880;22;20423;-92
2021/07/20 01:05:36;;;;;;;20.67;16.80;;;17.40;99.90;;;;;;6235532;22;21056;-90
2021/07/20 01:08:06;;;;;;;21.50;18.60;;;17.30;99.90;;;;;;6237037;22;20481;-90
2021/07/20 01:10:37;;;;;;;20.20;16.27;;;17.30;99.90;;;;;;6236090;22;20422;-90
2021/07/20 01:13:04;;;;;;;18.90;16.73;;;17.10;99.90;;;;;;6236301;22;20528;-90
2021/07/20 01:15:32;;;;;;;21.67;17.00;;;17.10;99.90;;;;;;6236349;22;20489;-90
2021/07/20 01:18:00;;;;;;;19.30;17.20;;;17.10;99.90;;;;;;6236142;22;20468;-90
2021/07/20 01:20:37;;;;;;;18.77;16.63;;;17.10;99.90;;;;;;6235475;22;20401;-90
2021/07/20 01:23:17;;;;;;;21.50;16.77;;;17.00;99.90;;;;;;6236039;22;20587;-90
2021/07/20 01:25:46;;;;;;;19.47;15.77;;;17.00;99.90;;;;;;6263087;22;20829;-89
2021/07/20 01:28:19;;;;;;;21.20;16.30;;;17.00;99.90;;;;;;6235078;22;20396;-89
2021/07/20 01:30:48;;;;;;;22.43;17.10;;;16.90;99.90;;;;;;6234319;22;20463;-89
2021/07/20 01:33:15;;;;;;;23.43;17.53;;;16.70;99.90;;;;;;6236256;22;20425;-89
2021/07/20 01:35:44;;;;;;;16.93;15.13;;;16.60;99.90;;;;;;6235528;22;20488;-89
2021/07/20 01:38:14;;;;;;;20.30;17.40;;;16.40;99.90;;;;;;6258317;22;20504;-89
2021/07/20 01:40:42;;;;;;;17.90;16.00;;;16.30;99.90;;;;;;6236581;22;20463;-89
2021/07/20 01:43:11;;;;;;;20.63;16.17;;;16.30;99.90;;;;;;6235667;22;20430;-89
2021/07/20 01:45:46;;;;;;;18.73;16.20;;;16.30;99.90;;;;;;6235014;22;20425;-89
2021/07/20 01:48:12;;;;;;;18.93;15.80;;;16.30;99.90;;;;;;6236097;22;20803;-89
2021/07/20 01:50:39;;;;;;;20.43;16.50;;;16.20;99.90;;;;;;6236608;22;20411;-90
2021/07/20 01:53:11;;;;;;;18.93;16.63;;;16.30;99.90;;;;;;6234667;22;20412;-89
2021/07/20 01:55:40;;;;;;;20.80;16.73;;;16.40;99.90;;;;;;6237150;22;20397;-90
2021/07/20 01:58:06;;;;;;;19.90;15.90;;;16.40;99.90;;;;;;6237471;22;20448;-90
2021/07/20 02:00:33;;;;;;;18.20;16.30;;;16.30;99.90;;;;;;6237214;22;20476;-90
2021/07/20 02:08:30;;;;;;;19.80;16.07;;;16.40;99.90;;;;;;6263436;22;20507;-90
2021/07/20 02:11:23;;;;;;;20.03;15.73;;;16.40;99.90;;;;;;6233892;22;20867;-90
2021/07/20 02:13:54;;;;;;;17.83;15.93;;;16.50;99.90;;;;;;6237785;22;20461;-89
2021/07/20 02:16:28;;;;;;;19.07;15.70;;;16.40;99.90;;;;;;6236846;22;20749;-90
2021/07/20 02:19:13;;;;;;;21.07;15.90;;;16.40;99.90;;;;;;6236536;22;20889;-91
2021/07/20 02:21:43;;;;;;;16.77;14.40;;;16.40;99.90;;;;;;6236740;22;20409;-91
2021/07/20 02:24:12;;;;;;;20.00;16.33;;;16.50;99.90;;;;;;6235893;22;20770;-90
2021/07/20 02:26:40;;;;;;;21.87;16.37;;;16.50;99.90;;;;;;6237450;22;20413;-90
2021/07/20 02:29:07;;;;;;;19.93;16.37;;;16.30;99.90;;;;;;6236355;22;20423;-89
2021/07/20 02:31:37;;;;;;;19.60;16.00;;;16.20;99.90;;;;;;6265888;22;20408;-90
2021/07/20 02:34:04;;;;;;;20.07;15.80;;;16.10;99.90;;;;;;6237022;22;20389;-89
2021/07/20 02:36:35;;;;;;;21.40;16.47;;;15.90;99.90;;;;;;6265651;22;20921;-90
2021/07/20 02:39:01;;;;;;;18.37;14.67;;;15.80;99.90;;;;;;6236838;22;20453;-91
2021/07/20 02:41:27;;;;;;;20.00;15.03;;;15.80;99.90;;;;;;6236966;22;20396;-91
2021/07/20 02:43:54;;;;;;;23.43;17.00;;;15.80;99.90;;;;;;6236916;22;20400;-91
2021/07/20 02:46:20;;;;;;;18.80;16.23;;;15.70;99.90;;;;;;6235624;22;20394;-91
2021/07/20 02:48:53;;;;;;;21.73;16.20;;;15.70;99.90;;;;;;6236460;22;20490;-90
2021/07/20 02:51:20;;;;;;;20.77;16.40;;;15.70;99.90;;;;;;6235945;22;20204;-90
2021/07/20 02:53:54;;;;;;;16.60;14.73;;;15.80;99.90;;;;;;6235104;22;20666;-91
2021/07/20 02:56:22;;;;;;;18.87;15.70;;;15.80;99.90;;;;;;6237665;22;20515;-91
2021/07/20 02:58:50;;;;;;;19.47;16.83;;;15.80;99.90;;;;;;6235975;22;21029;-89
2021/07/20 03:01:17;;;;;;;19.00;15.30;;;15.90;99.90;;;;;;6236173;22;20533;-91
2021/07/20 03:03:44;;;;;;;17.50;15.53;;;15.70;99.90;;;;;;6235810;22;20423;-90
2021/07/20 03:06:21;;;;;;;19.97;15.20;;;15.60;99.90;;;;;;6237128;22;20456;-93
2021/07/20 03:08:51;;;;;;;18.80;16.17;;;15.50;99.90;;;;;;6237611;22;20563;-93
2021/07/20 03:13:57;;;;;;;18.63;15.50;;;15.30;99.90;;;;;;6264390;22;20948;-93
2021/07/20 03:16:25;;;;;;;19.47;14.90;;;15.30;99.90;;;;;;6237526;22;20655;-92
2021/07/20 03:18:53;;;;;;;17.33;15.40;;;15.30;99.90;;;;;;6236952;22;20447;-93
2021/07/20 03:21:22;;;;;;;18.57;14.80;;;15.20;99.90;;;;;;6238083;22;20678;-92
2021/07/20 03:23:50;;;;;;;19.83;16.30;;;15.20;99.90;;;;;;6238190;22;20389;-93
2021/07/20 03:26:26;;;;;;;17.57;14.80;;;15.20;99.90;;;;;;6237322;22;20408;-92
2021/07/20 03:28:55;;;;;;;18.20;14.70;;;15.10;99.90;;;;;;6236019;22;20423;-93
2021/07/20 03:31:28;;;;;;;18.10;15.50;;;15.10;99.90;;;;;;6238618;22;20400;-93
2021/07/20 03:33:55;;;;;;;20.27;16.43;;;15.00;99.90;;;;;;6237034;22;20424;-92
2021/07/20 03:36:26;;;;;;;20.27;16.30;;;15.00;99.90;;;;;;6236480;22;20487;-93
2021/07/20 03:38:54;;;;;;;20.53;15.10;;;15.00;99.90;;;;;;6237707;22;20487;-92
2021/07/20 03:41:29;;;;;;;22.00;16.03;;;14.90;99.90;;;;;;6237354;22;20396;-92
2021/07/20 03:43:56;;;;;;;19.23;15.40;;;14.90;99.90;;;;;;6237298;22;20400;-91
2021/07/20 03:46:23;;;;;;;21.70;15.43;;;15.00;99.90;;;;;;6236205;22;20443;-91
2021/07/20 03:48:59;;;;;;;18.17;14.57;;;15.00;99.90;;;;;;6236201;22;20455;-91
2021/07/20 03:51:26;;;;;;;19.03;15.43;;;15.10;99.90;;;;;;6236048;22;20385;-90
2021/07/20 03:54:00;;;;;;;16.90;14.60;;;15.00;99.90;;;;;;6237787;22;20385;-89
2021/07/20 03:56:29;;;;;;;18.90;15.00;;;15.00;99.90;;;;;;6237744;22;20440;-90
2021/07/20 03:58:57;;;;;;;18.43;14.97;;;15.00;99.90;;;;;;6235809;22;20393;-90
2021/07/20 04:01:31;;;;;;;19.60;14.80;;;14.90;99.90;;;;;;6262932;22;20397;-92
2021/07/20 04:03:58;;;;;;;21.50;16.50;;;15.00;99.90;;;;;;6235470;22;20756;-89
2021/07/20 04:06:26;;;;;;;19.70;15.20;;;15.00;99.90;;;;;;6237904;22;21399;-88
2021/07/20 04:08:52;;;;;;;16.80;13.83;;;15.00;99.90;;;;;;6236230;22;20389;-87
2021/07/20 04:11:21;;;;;;;19.93;14.70;;;15.20;99.90;;;;;;6239059;22;20412;-86
2021/07/20 04:13:52;;;;;;;19.33;15.90;;;15.30;99.90;;;;;;6239400;22;20439;-87
2021/07/20 04:16:22;;;;;;;18.10;15.40;;;15.30;99.90;;;;;;6237003;22;20513;-89
2021/07/20 04:18:48;;;;;;;20.33;15.00;;;15.40;99.90;;;;;;6237372;22;20869;-88
2021/07/20 04:21:16;;;;;;;19.03;15.27;;;15.50;99.90;;;;;;6237745;22;20897;-88
2021/07/20 04:23:42;;;;;;;17.47;14.80;;;15.50;99.90;;;;;;6237868;22;20779;-89
2021/07/20 04:26:08;;;;;;;21.13;15.17;;;15.50;99.90;;;;;;6238420;22;20405;-89
2021/07/20 04:28:35;;;;;;;15.93;13.50;;;15.50;99.90;;;;;;6238194;22;20400;-88
2021/07/20 04:31:03;;;;;;;17.87;15.07;;;15.40;99.90;;;;;;6239156;22;20447;-95
2021/07/20 04:33:46;;;;;;;;;;;;;;;;;;;;;
2021/07/20 04:36:32;;;;;;;19.60;14.90;;;15.60;99.90;;;;;;6276235;22;20496;-94
2021/07/20 04:39:11;;;;;;;16.70;14.40;;;15.50;99.90;;;;;;6244331;22;20405;-94
2021/07/20 04:42:00;;;;;;;;;;;;;;;;;;;;;
2021/07/20 10:09:05;;;;;;;14.50;12.20;;;23.50;96.50;;;;;;6278001;22;20515;-96
2021/07/20 10:35:02;;;;;;;17.33;12.53;;;24.10;98.00;;;;;;6265861;22;20440;-89
2021/07/20 10:37:36;;;;;;;17.20;12.07;;;24.10;97.10;;;;;;6268100;22;20984;-90
2021/07/20 10:40:37;;;;;;;15.63;13.27;;;24.20;97.10;;;;;;6275497;22;20422;-95
2021/07/20 10:43:10;;;;;;;16.67;12.13;;;24.30;96.80;;;;;;6278212;22;20391;-94
2021/07/20 10:45:38;;;;;;;14.93;13.07;;;24.80;96.70;;;;;;6263877;22;20406;-94
2021/07/20 10:48:21;;;;;;;14.60;11.77;;;25.30;96.20;;;;;;6268133;22;20802;-85
2021/07/20 10:50:54;;;;;;;15.37;12.13;;;25.30;94.80;;;;;;6267252;22;20407;-88
2021/07/20 10:53:43;;;;;;;14.60;12.97;;;24.90;94.50;;;;;;6266161;22;20743;-87
2021/07/20 10:56:08;;;;;;;13.13;11.83;;;25.30;95.60;;;;;;6267347;22;20746;-85
2021/07/20 10:59:12;;;;;;;16.10;13.17;;;25.10;96.50;;;;;;6267158;22;20430;-85
2021/07/20 11:02:14;;;;;;;15.37;13.57;;;24.40;94.50;;;;;;6209520;22;20161;-87
2021/07/20 11:04:57;;;;;;;16.33;12.63;;;24.40;95.80;;;;;;6198989;22;20403;-87
2021/07/20 11:07:37;;;;;;;15.20;12.70;;;24.20;98.70;;;;;;6266432;22;20502;-86
2021/07/20 11:10:08;;;;;;;13.67;12.03;;;24.80;96.30;;;;;;6270162;22;20400;-87
2021/07/20 11:12:37;;;;;;;14.47;13.10;;;25.70;95.40;;;;;;6268678;22;20388;-87
2021/07/20 11:15:04;;;;;;;19.60;14.13;;;26.00;95.30;;;;;;6266670;22;20404;-87
2021/07/20 11:17:34;;;;;;;13.87;12.37;;;25.70;93.70;;;;;;6266266;22;20443;-87
2021/07/20 11:20:11;;;;;;;16.40;13.07;;;25.40;94.80;;;;;;6270460;22;20392;-86
2021/07/20 11:22:40;;;;;;;15.77;14.10;;;25.30;94.70;;;;;;6294150;22;20380;-88
2021/07/20 11:25:06;;;;;;;14.73;13.23;;;25.10;94.60;;;;;;6269624;22;20389;-87
2021/07/20 11:27:46;;;;;;;15.23;13.67;;;25.30;95.80;;;;;;6268785;22;20709;-86
2021/07/20 11:30:15;;;;;;;17.77;14.10;;;25.80;95.10;;;;;;6268143;22;20395;-86
2021/07/20 11:32:46;;;;;;;15.27;13.53;;;26.40;92.80;;;;;;6268675;22;20380;-85
2021/07/20 11:35:16;;;;;;;13.30;12.00;;;26.30;93.10;;;;;;6241058;22;20415;-87
2021/07/20 11:37:48;;;;;;;14.47;12.77;;;26.50;92.20;;;;;;6265757;22;20524;-86
2021/07/20 11:40:23;;;;;;;15.10;13.60;;;25.40;92.50;;;;;;6270066;22;20885;-88
2021/07/20 11:42:55;;;;;;;15.73;13.27;;;24.70;94.50;;;;;;6267377;22;20412;-90
2021/07/20 11:45:21;;;;;;;14.23;12.93;;;24.70;94.40;;;;;;6267281;22;20387;-88
2021/07/20 11:47:58;;;;;;;14.23;12.73;;;24.80;95.90;;;;;;6267206;22;20729;-89
2021/07/20 11:50:39;;;;;;;14.90;13.50;;;25.30;95.60;;;;;;6266976;22;20372;-88
2021/07/20 11:53:19;;;;;;;18.23;15.13;;;24.50;92.50;;;;;;6267711;22;20467;-88
2021/07/20 11:55:59;;;;;;;16.80;14.33;;;24.10;93.20;;;;;;6265366;22;20384;-88
2021/07/20 11:59:02;;;;;;;15.37;13.80;;;24.40;93.50;;;;;;6266523;22;20924;-88
2021/07/20 12:02:00;;;;;;;13.53;12.20;;;25.30;93.90;;;;;;6266710;22;20396;-87
2021/07/20 12:05:05;;;;;;;15.10;12.80;;;26.20;92.80;;;;;;6265949;22;20449;-88
2021/07/20 12:07:42;;;;;;;15.47;13.20;;;25.30;92.00;;;;;;6266138;22;20710;-87
2021/07/20 12:10:39;;;;;;;15.20;13.40;;;23.30;93.00;;;;;;6267554;22;20403;-88
2021/07/20 12:13:14;;;;;;;15.23;13.20;;;23.20;93.90;;;;;;6259298;22;20439;-88
2021/07/20 12:15:40;;;;;;;19.33;13.60;;;24.10;94.70;;;;;;6288867;22;20399;-88
2021/07/20 12:18:09;;;;;;;14.43;12.73;;;24.30;93.10;;;;;;6266658;22;20440;-89
2021/07/20 12:20:35;;;;;;;16.07;12.73;;;25.50;93.90;;;;;;6268479;22;20616;-88
2021/07/20 12:23:04;;;;;;;14.70;12.93;;;25.90;92.00;;;;;;6268496;22;20407;-89
2021/07/20 12:25:31;;;;;;;14.93;13.43;;;26.20;91.90;;;;;;6269946;22;20394;-88
2021/07/20 12:27:59;;;;;;;14.03;12.73;;;26.10;91.30;;;;;;6269473;22;20697;-89
2021/07/20 12:30:30;;;;;;;14.40;12.93;;;26.70;89.90;;;;;;6268891;22;20721;-88
2021/07/20 12:32:57;;;;;;;15.67;12.97;;;27.00;90.20;;;;;;6270824;22;20392;-89
2021/07/20 12:35:24;;;;;;;12.77;11.37;;;27.30;90.70;;;;;;6247461;22;20419;-89
2021/07/20 12:38:06;;;;;;;13.83;12.43;;;27.70;90.30;;;;;;6266979;22;20440;-89
2021/07/20 12:40:35;;;;;;;15.70;13.07;;;27.40;87.60;;;;;;6269025;22;20496;-87
2021/07/20 12:43:14;;;;;;;14.20;12.80;;;26.50;87.70;;;;;;6270794;22;20510;-87
2021/07/20 12:45:41;;;;;;;13.10;11.80;;;25.80;88.00;;;;;;6270800;22;20399;-88
2021/07/20 12:48:23;;;;;;;14.00;12.60;;;24.70;91.30;;;;;;6269915;22;20491;-88
2021/07/20 12:50:49;;;;;;;14.37;12.00;;;25.60;90.50;;;;;;6270489;22;20476;-88
2021/07/20 12:53:15;;;;;;;19.70;12.57;;;25.90;90.30;;;;;;6269660;22;20436;-89
2021/07/20 12:55:45;;;;;;;15.47;12.53;;;26.20;92.20;;;;;;6267137;22;20183;-89
2021/07/20 12:58:12;;;;;;;14.27;12.87;;;27.00;89.80;;;;;;6269175;22;20193;-89
2021/07/20 13:00:40;;;;;;;12.73;11.43;;;27.60;86.40;;;;;;6269225;22;20388;-88
2021/07/20 13:03:10;;;;;;;14.67;13.03;;;27.90;82.10;;;;;;6269813;22;20411;-88
2021/07/20 13:05:40;;;;;;;13.53;12.20;;;27.30;85.00;;;;;;6266468;22;20396;-88
2021/07/20 13:08:06;;;;;;;15.07;13.47;;;26.60;82.10;;;;;;6269414;22;20948;-88
2021/07/20 13:10:34;;;;;;;13.93;12.40;;;25.80;85.30;;;;;;6271286;22;20516;-91
2021/07/20 13:13:07;;;;;;;15.00;13.60;;;25.90;89.50;;;;;;6270636;22;20154;-88
2021/07/20 13:15:33;;;;;;;13.97;12.67;;;26.80;90.40;;;;;;6272460;22;20389;-89
2021/07/20 13:18:01;;;;;;;13.27;11.87;;;27.10;87.80;;;;;;6271534;22;20440;-89
2021/07/20 13:20:33;;;;;;;14.40;12.93;;;27.30;84.30;;;;;;6268380;22;20732;-87
2021/07/20 13:23:00;;;;;;;14.13;12.83;;;27.20;85.80;;;;;;6269944;22;20433;-88
2021/07/20 13:25:26;;;;;;;13.43;12.13;;;27.50;83.20;;;;;;6269801;22;20923;-87
2021/07/20 13:27:56;;;;;;;12.50;11.20;;;27.60;83.60;;;;;;6271275;22;20431;-88
2021/07/20 13:30:28;;;;;;;14.80;13.17;;;27.90;85.10;;;;;;6271069;22;20392;-87
2021/07/20 13:32:54;;;;;;;13.13;11.93;;;28.50;80.90;;;;;;6271331;22;20877;-88
2021/07/20 13:35:23;;;;;;;13.50;12.20;;;28.90;77.90;;;;;;6272144;22;20495;-86
2021/07/20 13:37:56;;;;;;;13.13;11.83;;;28.20;76.70;;;;;;6270113;22;20601;-87
2021/07/20 13:40:26;;;;;;;13.20;12.00;;;28.00;75.60;;;;;;6270668;22;20475;-87
2021/07/20 13:42:53;;;;;;;12.80;11.60;;;27.90;78.80;;;;;;6270416;22;20392;-86
2021/07/20 13:45:26;;;;;;;13.67;11.93;;;29.00;79.10;;;;;;6267871;22;20407;-86
2021/07/20 13:48:05;;;;;;;13.33;12.13;;;28.80;76.40;;;;;;6270325;22;20430;-86
2021/07/20 13:50:34;;;;;;;13.23;11.93;;;30.50;72.20;;;;;;6248175;22;20707;-87
2021/07/20 13:53:14;;;;;;;13.17;11.87;;;32.20;67.70;;;;;;6268538;22;20396;-87
2021/07/20 13:55:50;;;;;;;12.67;11.53;;;34.40;63.00;;;;;;6256949;22;20430;-88
2021/07/20 13:58:33;;;;;;;11.80;10.70;;;36.00;56.50;;;;;;6293344;22;20467;-87
2021/07/20 14:01:02;;;;;;;13.60;12.30;;;35.80;50.60;;;;;;6268501;22;20511;-89
2021/07/20 14:03:30;;;;;;;12.17;11.13;;;32.80;52.90;;;;;;6268609;22;20403;-88
2021/07/20 14:06:03;;;;;;;13.47;11.63;;;32.50;54.30;;;;;;6267647;22;20391;-87
2021/07/20 14:08:29;;;;;;;12.03;10.80;;;35.40;52.90;;;;;;6268367;22;20400;-88
2021/07/20 14:10:57;;;;;;;13.80;12.40;;;37.30;46.70;;;;;;6266711;22;20454;-89
2021/07/20 14:13:28;;;;;;;12.40;11.03;;;37.20;47.30;;;;;;6264853;22;20422;-88
2021/07/20 14:15:56;;;;;;;12.60;11.43;;;38.00;44.30;;;;;;6260199;22;20452;-86
2021/07/20 14:18:23;;;;;;;13.57;12.27;;;36.90;43.90;;;;;;6264182;22;20541;-88
2021/07/20 14:20:49;;;;;;;12.60;11.50;;;37.70;43.40;;;;;;6239889;22;20224;-87
2021/07/20 14:23:15;;;;;;;12.10;11.10;;;36.70;41.70;;;;;;6265224;22;20404;-86
2021/07/20 14:26:01;;;;;;;11.83;10.73;;;36.20;44.80;;;;;;6283414;22;20428;-87
2021/07/20 14:28:29;;;;;;;11.97;10.80;;;35.70;43.60;;;;;;6265228;22;20869;-89
2021/07/20 14:30:56;;;;;;;12.80;11.50;;;36.30;44.60;;;;;;6265203;22;20885;-88
2021/07/20 14:33:25;;;;;;;12.23;11.13;;;36.10;43.00;;;;;;6266404;22;20463;-89
2021/07/20 14:35:52;;;;;;;12.63;11.33;;;35.90;43.40;;;;;;6264318;22;20418;-88
2021/07/20 14:38:53;;;;;;;11.93;10.73;;;35.60;42.00;;;;;;6262981;22;20439;-88
2021/07/20 14:41:19;;;;;;;12.90;11.50;;;37.10;42.90;;;;;;6261842;22;20595;-86
2021/07/20 14:43:57;;;;;;;13.23;11.57;;;37.90;39.80;;;;;;6292505;22;20161;-90
2021/07/20 14:46:38;;;;;;;12.30;11.23;;;39.20;38.40;;;;;;6264620;22;20192;-88
2021/07/20 14:49:16;;;;;;;12.70;11.60;;;39.00;39.30;;;;;;6262699;22;20161;-88
2021/07/20 14:51:43;;;;;;;12.25;11.15;;;39.10;37.50;;;;;;6256973;22;20416;-87
2021/07/20 14:54:39;;;;;;;12.00;10.90;;;38.60;36.20;;;;;;6264537;22;20463;-91
2021/07/20 14:57:08;;;;;;;10.50;9.60;;;37.70;39.10;;;;;;6229982;22;20188;-91
2021/07/20 14:59:46;;;;;;;11.80;10.80;;;38.80;37.90;;;;;;6289789;22;20663;-89
2021/07/20 15:02:39;;;;;;;11.27;10.27;;;38.90;35.80;;;;;;6242995;22;20168;-90
2021/07/20 15:05:24;;;;;;;11.00;10.10;;;37.70;36.60;;;;;;6292229;22;20191;-88
2021/07/20 15:08:15;;;;;;;12.40;11.20;;;36.10;40.10;;;;;;6263791;22;20391;-89
2021/07/20 15:10:41;;;;;;;10.80;9.80;;;35.60;41.30;;;;;;6287897;22;20388;-88
2021/07/20 15:13:12;;;;;;;10.97;9.80;;;35.90;42.90;;;;;;6262448;22;20904;-89
2021/07/20 15:15:51;;;;;;;11.80;10.23;;;36.70;40.60;;;;;;6262221;22;20161;-89
2021/07/20 15:18:39;;;;;;;11.87;10.67;;;36.90;40.10;;;;;;6262428;22;20446;-89
2021/07/20 15:21:04;;;;;;;11.87;10.80;;;38.00;36.90;;;;;;6261429;22;20172;-92
2021/07/20 15:23:31;;;;;;;11.20;10.10;;;37.90;38.60;;;;;;6264722;22;20409;-90
2021/07/20 15:25:57;;;;;;;11.90;10.80;;;37.60;39.60;;;;;;6263169;22;20628;-90
2021/07/20 15:28:25;;;;;;;15.17;10.43;;;36.50;40.10;;;;;;6262929;22;20392;-89
2021/07/20 15:30:51;;;;;;;10.57;9.57;;;36.50;37.50;;;;;;6262385;22;20171;-89
2021/07/20 15:33:22;;;;;;;12.00;10.50;;;34.30;39.00;;;;;;6261685;22;20438;-89
2021/07/20 15:35:47;;;;;;;10.27;9.37;;;33.00;42.10;;;;;;6261717;22;20443;-89
2021/07/20 15:38:13;;;;;;;10.47;9.57;;;35.60;39.50;;;;;;6261952;22;20967;-89
2021/07/20 15:40:46;;;;;;;10.03;8.67;;;38.00;34.10;;;;;;6263053;22;20169;-91
2021/07/20 15:43:12;;;;;;;9.73;8.83;;;38.70;33.30;;;;;;6264738;22;20165;-90
2021/07/20 15:45:37;;;;;;;11.03;9.93;;;39.30;33.00;;;;;;6263867;22;20586;-89
2021/07/20 15:48:09;;;;;;;10.40;9.50;;;39.00;34.80;;;;;;6270452;22;20160;-89
2021/07/20 15:50:37;;;;;;;10.27;9.47;;;38.60;35.70;;;;;;6262992;22;20168;-89
2021/07/20 15:53:04;;;;;;;10.10;9.27;;;35.10;34.10;;;;;;6263172;22;20164;-92
2021/07/20 15:55:30;;;;;;;10.40;9.43;;;36.40;37.40;;;;;;6266646;22;20399;-92
2021/07/20 15:58:00;;;;;;;9.87;9.00;;;37.90;35.70;;;;;;6264351;22;20200;-89
2021/07/20 16:00:31;;;;;;;10.70;9.70;;;39.10;33.30;;;;;;6262898;22;20192;-90
2021/07/20 16:03:05;;;;;;;11.67;10.60;;;39.10;32.70;;;;;;6266236;22;20168;-90
2021/07/20 16:05:32;;;;;;;11.43;10.23;;;37.50;32.80;;;;;;6263300;22;20157;-90
2021/07/20 16:11:04;;;;;;;11.13;9.53;;;37.50;34.90;;;;;;6295011;22;20202;-88
2021/07/20 16:13:33;;;;;;;12.90;11.70;;;37.60;34.50;;;;;;6269196;22;20218;-89
2021/07/20 16:15:59;;;;;;;11.67;10.53;;;35.70;37.20;;;;;;6265852;22;20732;-89
2021/07/20 16:18:47;;;;;;;10.50;9.60;;;34.10;37.70;;;;;;6267781;22;20439;-89
2021/07/20 16:21:52;;;;;;;13.70;11.60;;;33.30;38.90;;;;;;6297412;22;20380;-90
2021/07/20 16:24:20;;;;;;;10.97;10.03;;;34.30;39.80;;;;;;6295482;22;20529;-90
2021/07/20 16:26:53;;;;;;;10.70;9.70;;;36.00;38.80;;;;;;6267063;22;20392;-89
2021/07/20 16:29:36;;;;;;;11.43;10.23;;;34.80;37.50;;;;;;6266475;22;21379;-88
2021/07/20 16:32:59;;;;;;;;;;;;;;;;;;;;;
2021/07/20 18:27:54;;;;;;;14.70;9.40;;;24.30;71.30;;;;;;6260733;22;20498;-86
2021/07/20 18:30:21;;;;;;;11.70;10.50;;;23.70;76.60;;;;;;6233400;22;20747;-85
2021/07/20 18:32:48;;;;;;;11.50;10.30;;;23.40;77.30;;;;;;6261186;22;20384;-85
2021/07/20 18:35:14;;;;;;;15.10;13.70;;;23.10;80.60;;;;;;6232154;22;20395;-85
2021/07/20 18:37:42;;;;;;;14.57;13.13;;;22.70;83.70;;;;;;6233994;22;20452;-84
2021/07/20 18:40:09;;;;;;;11.97;10.77;;;22.40;89.10;;;;;;6235276;22;20709;-85
2021/07/20 18:45:33;;;;;;;11.70;10.60;;;22.00;92.50;;;;;;6276150;22;20481;-87
2021/07/20 18:48:00;;;;;;;10.13;9.10;;;21.70;96.60;;;;;;6286671;22;20467;-89
2021/07/20 18:50:25;;;;;;;11.67;9.50;;;21.50;99.10;;;;;;6265813;22;20475;-84
2021/07/20 18:52:51;;;;;;;10.33;9.33;;;21.30;99.90;;;;;;6265865;22;20384;-86
2021/07/20 19:39:18;;;;;;;11.20;10.00;;;18.90;99.90;;;;;;6267935;22;20438;-83
2021/07/20 19:42:14;;;;;;;9.60;8.60;;;18.80;99.90;;;;;;6264032;22;20412;-86
2021/07/20 19:44:43;;;;;;;10.10;9.10;;;18.80;99.90;;;;;;6290578;22;20609;-86
2021/07/20 19:47:10;;;;;;;9.70;8.70;;;18.70;99.90;;;;;;6264099;22;20392;-85
2021/07/20 19:49:36;;;;;;;12.07;8.43;;;;;;;;;;6265780;22;20404;-84
2021/07/20 19:52:09;;;;;;;11.17;10.10;;;18.60;99.90;;;;;;6265307;22;20391;-87
2021/07/20 19:54:35;;;;;;;10.43;9.40;;;18.50;99.90;;;;;;6264379;22;20407;-84
2021/07/20 19:57:01;;;;;;;10.60;9.50;;;18.40;99.90;;;;;;6265195;22;20750;-86
2021/07/20 19:59:33;;;;;;;10.50;9.40;;;18.40;99.90;;;;;;6264638;22;20400;-86
2021/07/20 20:02:21;;;;;;;10.10;8.63;;;18.40;99.90;;;;;;6263961;22;20380;-88
2021/07/20 20:41:51;;;;;;;13.67;9.10;;;18.30;99.90;;;;;;6264674;22;20498;-89
2021/07/20 20:47:17;;;;;;;11.20;9.80;;;18.10;99.90;;;;;;6262787;22;20777;-87
2021/07/20 20:49:42;;;;;;;11.60;10.03;;;18.00;99.90;;;;;;6263101;22;20417;-87
2021/07/20 20:52:08;;;;;;;11.50;9.60;;;18.00;99.90;;;;;;6263278;22;20161;-85
2021/07/20 20:54:35;;;;;;;11.40;9.87;;;17.90;99.90;;;;;;6266595;22;20247;-86
2021/07/20 20:57:00;;;;;;;14.87;9.90;;;18.00;99.90;;;;;;6238267;22;20432;-86
2021/07/20 20:59:26;;;;;;;9.80;8.80;;;18.00;99.90;;;;;;6261799;22;20879;-87
2021/07/20 21:01:52;;;;;;;9.07;8.17;;;18.00;99.90;;;;;;6238308;22;20171;-86
2021/07/20 21:04:18;;;;;;;12.90;8.17;;;18.10;99.90;;;;;;6237181;22;20181;-87
2021/07/20 21:06:44;;;;;;;11.00;9.50;;;18.20;99.90;;;;;;6237148;22;20393;-86
2021/07/20 21:09:13;;;;;;;11.10;8.87;;;18.20;99.90;;;;;;6238297;22;20241;-87
2021/07/20 21:11:42;;;;;;;9.83;8.83;;;18.20;99.90;;;;;;6238610;22;20189;-87
2021/07/20 21:14:15;;;;;;;13.07;8.53;;;18.30;99.90;;;;;;6265198;22;20412;-86
2021/07/20 21:16:41;;;;;;;11.40;9.00;;;18.40;99.90;;;;;;6237406;22;20890;-87
2021/07/20 21:19:07;;;;;;;12.43;9.10;;;18.40;99.90;;;;;;6237265;22;20158;-87
2021/07/20 21:21:33;;;;;;;8.93;7.80;;;18.40;99.90;;;;;;6238808;22;20823;-87
2021/07/20 21:24:01;;;;;;;11.30;8.80;;;18.30;99.90;;;;;;6238576;22;20961;-87
2021/07/20 21:26:27;;;;;;;10.73;8.27;;;18.30;99.90;;;;;;6238028;22;20397;-86
2021/07/20 21:28:53;;;;;;;9.40;8.43;;;18.20;99.90;;;;;;6237413;22;20412;-86
2021/07/20 21:31:19;;;;;;;10.23;9.23;;;18.20;99.90;;;;;;6212709;22;20169;-86
2021/07/20 21:33:44;;;;;;;10.50;9.40;;;18.20;99.90;;;;;;6237439;22;20431;-85
2021/07/20 21:36:10;;;;;;;11.40;9.03;;;18.20;99.90;;;;;;6237364;22;20640;-85
2021/07/20 21:38:40;;;;;;;14.27;8.00;;;18.20;99.90;;;;;;6264647;22;20197;-85
2021/07/20 21:41:07;;;;;;;9.20;8.30;;;18.20;99.90;;;;;;6237413;22;20735;-86
2021/07/20 21:43:34;;;;;;;10.33;8.47;;;18.30;99.90;;;;;;6264215;22;20224;-87
2021/07/20 21:46:00;;;;;;;10.73;8.27;;;18.30;99.90;;;;;;6237507;22;20401;-87
2021/07/20 21:48:32;;;;;;;9.80;8.30;;;18.20;99.90;;;;;;6237358;22;20154;-87
2021/07/20 21:50:59;;;;;;;10.80;8.53;;;18.00;99.90;;;;;;6237794;22;20199;-88
2021/07/20 21:53:25;;;;;;;10.50;8.50;;;18.10;99.90;;;;;;6238722;22;20407;-87
2021/07/20 21:55:51;;;;;;;10.50;8.20;;;18.10;99.90;;;;;;6235230;22;20409;-86
2021/07/20 21:58:16;;;;;;;9.13;7.77;;;18.10;99.90;;;;;;6237662;22;20243;-88
2021/07/20 22:00:42;;;;;;;8.80;7.90;;;18.10;99.90;;;;;;6264551;22;20536;-86
2021/07/20 22:03:10;;;;;;;9.13;8.17;;;18.00;99.90;;;;;;6237085;22;20536;-85
2021/07/20 22:05:36;;;;;;;10.77;7.90;;;17.90;99.90;;;;;;6237376;22;20167;-85
2021/07/20 22:08:02;;;;;;;9.40;7.63;;;17.70;99.90;;;;;;6237363;22;20506;-86
2021/07/20 22:10:32;;;;;;;11.37;8.40;;;17.60;99.90;;;;;;6239851;22;20220;-86
2021/07/20 22:12:58;;;;;;;11.57;9.23;;;17.60;99.90;;;;;;6264422;22;20667;-86